createdAt,value
2023-02-09T00:01:27.537Z,34.50
2023-02-09T00:03:54.438Z,34.20
2023-02-09T00:06:22.447Z,35.40
2023-02-09T00:08:49.706Z,36.70
2023-02-09T00:11:41.922Z,35.90
2023-02-09T00:14:10.192Z,34.30
2023-02-09T00:16:37.021Z,34.70
2023-02-09T00:19:04.410Z,33.90
2023-02-09T00:21:31.498Z,33.20
2023-02-09T00:23:58.438Z,31.00
2023-02-09T00:26:25.387Z,35.00
2023-02-09T00:28:52.462Z,34.30
2023-02-09T00:31:20.364Z,35.80
2023-02-09T00:33:47.193Z,34.20
2023-02-09T00:36:14.132Z,32.60
2023-02-09T00:38:40.990Z,30.70
2023-02-09T00:41:09.030Z,31.90
2023-02-09T00:43:36.417Z,34.40
2023-02-09T00:46:03.950Z,34.60
2023-02-09T00:48:32.413Z,32.10
2023-02-09T00:50:59.409Z,32.10
2023-02-09T00:53:28.277Z,31.80
2023-02-09T00:55:55.005Z,33.90
2023-02-09T00:58:22.563Z,34.00
2023-02-09T01:00:50.020Z,32.70
2023-02-09T01:03:18.810Z,32.60
2023-02-09T01:05:46.549Z,35.10
2023-02-09T01:08:13.372Z,31.70
2023-02-09T01:10:40.452Z,33.60
2023-02-09T01:13:07.313Z,33.90
2023-02-09T01:15:34.747Z,32.60
2023-02-09T01:18:01.588Z,35.50
2023-02-09T01:20:29.115Z,35.00
2023-02-09T01:22:58.602Z,36.60
2023-02-09T01:25:25.634Z,31.70
2023-02-09T01:27:52.866Z,32.80
2023-02-09T01:30:20.071Z,32.80
2023-02-09T01:32:48.109Z,32.20
2023-02-09T01:35:15.137Z,29.90
2023-02-09T01:37:42.063Z,37.60
2023-02-09T01:40:10.148Z,31.80
2023-02-09T01:42:37.301Z,33.50
2023-02-09T01:45:34.926Z,34.80
2023-02-09T01:48:03.125Z,31.50
2023-02-09T01:50:33.070Z,29.70
2023-02-09T01:53:00.151Z,32.20
2023-02-09T01:55:28.267Z,32.00
2023-02-09T01:58:00.931Z,34.50
2023-02-09T02:00:27.769Z,37.60
2023-02-09T02:03:00.587Z,34.50
2023-02-09T02:05:27.336Z,32.40
2023-02-09T02:08:00.504Z,32.10
2023-02-09T02:10:28.559Z,32.90
2023-02-09T02:12:55.510Z,33.30
2023-02-09T02:15:29.338Z,36.30
2023-02-09T02:18:11.658Z,33.90
2023-02-09T02:20:45.660Z,33.00
2023-02-09T02:23:22.371Z,34.60
2023-02-09T02:26:20.342Z,32.10
2023-02-09T02:28:56.801Z,38.90
2023-02-09T02:32:07.575Z,47.90
2023-02-09T02:34:43.897Z,44.40
2023-02-09T02:37:10.770Z,49.10
2023-02-09T02:39:42.036Z,47.80
2023-02-09T02:42:41.627Z,77.00
2023-02-09T02:45:15.592Z,75.90
2023-02-09T02:47:44.963Z,57.50
2023-02-09T02:50:14.396Z,51.20
2023-02-09T02:52:42.971Z,49.00
2023-02-09T02:55:13.130Z,49.10
2023-02-09T02:57:43.105Z,45.30
2023-02-09T03:00:16.569Z,55.80
2023-02-09T03:02:47.158Z,54.10
2023-02-09T03:05:14.453Z,51.80
2023-02-09T03:07:41.393Z,57.80
2023-02-09T03:10:31.938Z,55.10
2023-02-09T03:13:07.540Z,53.00
2023-02-09T03:15:42.012Z,53.90
2023-02-09T03:18:15.239Z,54.80
2023-02-09T03:23:47.965Z,47.30
2023-02-09T03:26:19.726Z,51.60
2023-02-09T03:28:48.412Z,53.80
2023-02-09T03:31:15.346Z,66.00
2023-02-09T03:33:42.064Z,62.90
2023-02-09T03:36:13.485Z,65.90
2023-02-09T03:38:40.228Z,62.30
2023-02-09T03:41:08.075Z,59.10
2023-02-09T03:43:53.398Z,70.90
2023-02-09T03:46:20.650Z,76.00
2023-02-09T03:48:49.380Z,71.90
2023-02-09T03:51:16.320Z,72.50
2023-02-09T03:53:43.231Z,66.10
2023-02-09T03:56:10.153Z,66.40
2023-02-09T03:58:37.384Z,65.90
2023-02-09T04:01:07.185Z,67.70
2023-02-09T04:03:34.893Z,71.00
2023-02-09T04:06:01.698Z,74.30
2023-02-09T04:08:32.618Z,73.80
2023-02-09T04:11:00.132Z,76.60
2023-02-09T04:13:27.773Z,85.40
2023-02-09T04:15:54.784Z,73.50
2023-02-09T04:18:21.657Z,73.20
2023-02-09T04:20:48.992Z,79.10
2023-02-09T04:23:15.794Z,70.80
2023-02-09T04:25:42.901Z,73.40
2023-02-09T04:28:09.784Z,72.70
2023-02-09T04:30:36.800Z,73.90
2023-02-09T04:33:04.072Z,69.80
2023-02-09T04:35:30.962Z,73.40
2023-02-09T04:37:57.804Z,75.50
2023-02-09T04:40:24.612Z,73.20
2023-02-09T04:42:51.667Z,75.10
2023-02-09T04:45:18.537Z,70.70
2023-02-09T04:47:45.290Z,74.40
2023-02-09T04:50:12.231Z,77.50
2023-02-09T04:52:39.595Z,74.00
2023-02-09T04:55:06.856Z,75.60
2023-02-09T04:57:52.402Z,83.60
2023-02-09T05:00:19.631Z,84.50
2023-02-09T05:02:46.663Z,84.90
2023-02-09T05:05:13.285Z,85.50
2023-02-09T05:07:40.863Z,83.80
2023-02-09T05:10:07.954Z,96.00
2023-02-09T05:12:35.317Z,111.30
2023-02-09T05:15:02.217Z,108.00
2023-02-09T05:17:32.498Z,114.80
2023-02-09T05:19:59.497Z,132.50
2023-02-09T05:22:26.306Z,148.10
2023-02-09T05:24:53.184Z,133.30
2023-02-09T05:27:19.813Z,132.20
2023-02-09T05:29:47.152Z,128.00
2023-02-09T05:32:13.992Z,153.10
2023-02-09T05:34:40.746Z,155.40
2023-02-09T05:37:07.471Z,177.20
2023-02-09T05:39:35.333Z,189.00
2023-02-09T05:42:14.890Z,201.10
2023-02-09T05:44:46.715Z,204.10
2023-02-09T05:47:15.438Z,220.00
2023-02-09T05:49:42.032Z,203.60
2023-02-09T05:52:08.847Z,189.70
2023-02-09T05:54:36.945Z,160.70
2023-02-09T05:57:04.389Z,150.70
2023-02-09T05:59:33.863Z,140.80
2023-02-09T06:02:01.137Z,127.10
2023-02-09T06:04:28.264Z,107.90
2023-02-09T06:06:55.186Z,107.60
2023-02-09T06:09:22.292Z,100.00
2023-02-09T06:11:49.193Z,95.30
2023-02-09T06:14:17.078Z,99.20
2023-02-09T06:16:49.829Z,99.70
2023-02-09T06:19:19.356Z,89.70
2023-02-09T06:21:46.074Z,88.20
2023-02-09T06:24:13.260Z,89.60
2023-02-09T06:26:40.557Z,78.10
2023-02-09T06:29:07.408Z,89.00
2023-02-09T06:31:35.057Z,86.40
2023-02-09T06:34:02.003Z,79.20
2023-02-09T06:36:31.827Z,73.70
2023-02-09T06:38:58.420Z,71.40
2023-02-09T06:41:27.316Z,70.90
2023-02-09T06:43:54.726Z,76.70
2023-02-09T06:46:21.557Z,82.50
2023-02-09T06:48:48.540Z,81.80
2023-02-09T06:51:16.024Z,89.60
2023-02-09T06:53:43.474Z,85.50
2023-02-09T06:56:10.466Z,80.80
2023-02-09T06:58:37.831Z,75.50
2023-02-09T07:01:06.027Z,78.90
2023-02-09T07:03:33.160Z,77.30
2023-02-09T07:06:05.110Z,74.00
2023-02-09T07:08:32.281Z,68.80
2023-02-09T07:11:10.665Z,63.10
2023-02-09T07:13:39.136Z,72.70
2023-02-09T07:16:06.807Z,72.80
2023-02-09T07:18:35.127Z,75.10
2023-02-09T07:21:04.277Z,76.00
2023-02-09T07:23:31.442Z,76.70
2023-02-09T07:26:08.533Z,78.20
2023-02-09T07:28:38.036Z,76.30
2023-02-09T07:31:06.674Z,74.30
2023-02-09T07:33:36.141Z,69.60
2023-02-09T07:36:08.271Z,71.10
2023-02-09T07:38:35.602Z,72.70
2023-02-09T07:41:03.947Z,58.40
2023-02-09T07:43:31.269Z,185.20
2023-02-09T07:46:03.222Z,105.90
2023-02-09T07:48:30.167Z,95.00
2023-02-09T07:50:57.117Z,60.50
2023-02-09T07:53:23.780Z,30.40
2023-02-09T07:55:50.443Z,26.00
2023-02-09T07:58:19.252Z,49.80
2023-02-09T08:00:46.571Z,93.90
2023-02-09T08:03:19.659Z,55.10
2023-02-09T08:06:00.082Z,38.60
2023-02-09T08:08:27.576Z,26.80
2023-02-09T08:10:55.124Z,27.80
2023-02-09T08:13:22.508Z,24.20
2023-02-09T08:16:02.983Z,22.40
2023-02-09T08:18:42.235Z,24.00
2023-02-09T08:21:10.500Z,28.90
2023-02-09T08:23:40.114Z,24.20
2023-02-09T08:26:09.924Z,18.90
2023-02-09T08:28:44.068Z,17.80
2023-02-09T08:31:24.540Z,17.30
2023-02-09T08:33:55.874Z,17.90
2023-02-09T08:36:23.420Z,19.00
2023-02-09T08:38:51.336Z,18.40
2023-02-09T08:41:18.912Z,17.70
2023-02-09T08:43:49.291Z,16.40
2023-02-09T08:46:17.795Z,23.20
2023-02-09T08:48:46.739Z,17.60
2023-02-09T08:51:14.628Z,17.30
2023-02-09T08:53:42.834Z,17.40
2023-02-09T08:56:09.914Z,18.00
2023-02-09T09:01:40.269Z,22.10
2023-02-09T09:04:07.585Z,23.20
2023-02-09T09:06:35.998Z,48.50
2023-02-09T09:09:03.017Z,39.80
2023-02-09T09:11:30.623Z,27.50
2023-02-09T09:13:57.431Z,29.40
2023-02-09T09:16:24.612Z,24.20
2023-02-09T09:18:51.272Z,21.50
2023-02-09T09:21:18.144Z,19.90
2023-02-09T09:23:45.333Z,19.40
2023-02-09T09:26:12.464Z,20.60
2023-02-09T09:28:39.400Z,20.20
2023-02-09T09:31:08.175Z,20.00
2023-02-09T09:33:35.434Z,18.30
2023-02-09T09:36:02.586Z,17.10
2023-02-09T09:38:29.684Z,19.60
2023-02-09T09:40:56.725Z,19.90
2023-02-09T09:43:26.775Z,19.30
2023-02-09T09:45:53.361Z,18.50
2023-02-09T09:48:28.353Z,18.10
2023-02-09T09:50:56.297Z,18.00
2023-02-09T09:53:32.643Z,16.70
2023-02-09T09:56:02.168Z,21.60
2023-02-09T09:58:31.013Z,18.70
2023-02-09T10:00:59.103Z,20.40
2023-02-09T10:03:25.820Z,28.30
2023-02-09T10:05:59.425Z,54.10
2023-02-09T10:08:36.702Z,43.60
2023-02-09T10:11:12.551Z,28.10
2023-02-09T10:13:52.122Z,26.60
2023-02-09T10:16:20.414Z,33.40
2023-02-09T10:18:51.627Z,26.20
2023-02-09T10:21:18.707Z,25.90
2023-02-09T10:23:51.548Z,78.00
2023-02-09T10:26:19.119Z,67.10
2023-02-09T10:28:52.634Z,64.50
2023-02-09T10:31:26.604Z,75.30
2023-02-09T10:34:18.723Z,36.30
2023-02-09T10:36:45.299Z,46.20
2023-02-09T10:39:18.131Z,30.10
2023-02-09T10:41:47.108Z,41.40
2023-02-09T10:44:18.457Z,47.60
2023-02-09T10:46:46.840Z,35.10
2023-02-09T10:49:39.137Z,38.50
2023-02-09T10:52:12.028Z,47.40
2023-02-09T10:54:51.426Z,31.10
2023-02-09T10:57:22.235Z,45.70
2023-02-09T10:59:59.959Z,41.90
2023-02-09T11:02:35.432Z,42.90
2023-02-09T11:05:03.987Z,35.30
2023-02-09T11:07:33.913Z,31.40
2023-02-09T11:10:02.926Z,21.70
2023-02-09T11:12:30.193Z,18.90
2023-02-09T11:14:57.092Z,22.00
2023-02-09T11:17:36.796Z,20.20
2023-02-09T11:20:31.484Z,23.90
2023-02-09T11:23:32.617Z,18.80
2023-02-09T11:26:07.079Z,21.80
2023-02-09T11:28:38.791Z,20.20
2023-02-09T11:31:24.537Z,19.00
2023-02-09T11:34:11.650Z,22.10
2023-02-09T11:36:47.585Z,21.30
2023-02-09T11:39:24.761Z,16.90
2023-02-09T11:42:22.405Z,19.30
2023-02-09T11:44:57.803Z,19.50
2023-02-09T11:48:03.415Z,17.60
2023-02-09T11:50:55.103Z,16.80
2023-02-09T11:53:23.332Z,16.70
2023-02-09T11:55:53.827Z,12.00
2023-02-09T11:58:29.189Z,9.50
2023-02-09T12:01:15.154Z,11.10
2023-02-09T12:03:52.611Z,10.30
2023-02-09T12:06:22.370Z,11.50
2023-02-09T12:08:58.797Z,9.50
2023-02-09T12:11:36.251Z,13.00
2023-02-09T12:14:35.367Z,14.90
2023-02-09T12:17:12.798Z,14.30
2023-02-09T12:19:42.791Z,12.50
2023-02-09T12:22:34.637Z,16.00
2023-02-09T12:25:23.268Z,16.00
2023-02-09T12:28:08.349Z,18.80
2023-02-09T12:30:41.532Z,16.80
2023-02-09T12:33:15.718Z,17.30
2023-02-09T12:35:42.736Z,17.80
2023-02-09T12:38:17.027Z,18.60
2023-02-09T12:40:43.800Z,16.30
2023-02-09T12:43:24.703Z,14.00
2023-02-09T12:46:23.288Z,16.00
2023-02-09T12:48:59.405Z,15.50
2023-02-09T12:51:35.480Z,16.90
2023-02-09T12:54:34.614Z,20.30
2023-02-09T12:57:14.065Z,25.90
2023-02-09T12:59:52.940Z,18.80
2023-02-09T13:02:35.186Z,16.70
2023-02-09T13:05:12.702Z,17.90
2023-02-09T13:07:50.985Z,16.00
2023-02-09T13:10:25.381Z,14.80
2023-02-09T13:13:12.039Z,16.00
2023-02-09T13:16:05.339Z,14.10
2023-02-09T13:18:45.899Z,12.90
2023-02-09T13:21:51.654Z,13.10
2023-02-09T13:24:53.414Z,15.60
2023-02-09T13:27:21.844Z,16.60
2023-02-09T13:29:49.663Z,16.00
2023-02-09T13:32:39.135Z,16.00
2023-02-09T13:35:15.734Z,17.30
2023-02-09T13:37:47.361Z,17.90
2023-02-09T13:40:21.991Z,15.00
2023-02-09T13:43:10.721Z,15.40
2023-02-09T13:45:51.853Z,16.10
2023-02-09T13:48:25.013Z,15.50
2023-02-09T13:50:53.091Z,20.10
2023-02-09T13:53:22.788Z,14.80
2023-02-09T13:55:53.161Z,32.40
2023-02-09T13:58:36.509Z,18.90
2023-02-09T14:01:14.882Z,17.60
2023-02-09T14:03:56.934Z,19.10
2023-02-09T14:06:31.184Z,18.30
2023-02-09T14:08:58.895Z,18.70
2023-02-09T14:11:41.951Z,22.40
2023-02-09T14:14:15.070Z,20.20
2023-02-09T14:16:52.925Z,20.40
2023-02-09T14:19:31.020Z,19.90
2023-02-09T14:21:57.828Z,17.90
2023-02-09T14:24:25.708Z,17.60
2023-02-09T14:27:21.488Z,22.00
2023-02-09T14:29:49.230Z,20.60
2023-02-09T14:32:32.964Z,19.00
2023-02-09T14:35:18.153Z,20.90
2023-02-09T14:37:45.491Z,24.00
2023-02-09T14:40:33.953Z,21.30
2023-02-09T14:43:11.005Z,23.00
2023-02-09T14:45:43.762Z,25.60
2023-02-09T14:48:50.633Z,20.30
2023-02-09T14:51:17.491Z,20.20
2023-02-09T14:53:44.340Z,18.50
2023-02-09T14:56:28.322Z,19.90
2023-02-09T14:58:55.160Z,19.70
2023-02-09T15:09:05.288Z,21.00
2023-02-09T15:11:53.612Z,21.00
2023-02-09T15:14:24.419Z,18.30
2023-02-09T15:16:52.395Z,21.80
2023-02-09T15:19:21.660Z,20.70
2023-02-09T15:22:05.346Z,21.80
2023-02-09T15:24:36.057Z,21.60
2023-02-09T15:27:04.496Z,24.30
2023-02-09T15:29:34.723Z,25.80
2023-02-09T15:32:02.907Z,23.50
2023-02-09T15:34:31.098Z,23.90
2023-02-09T15:36:59.237Z,23.00
2023-02-09T15:39:31.477Z,22.00
2023-02-09T15:42:22.868Z,20.60
2023-02-09T15:45:09.671Z,21.00
2023-02-09T15:47:52.962Z,20.60
2023-02-09T15:50:21.160Z,21.00
2023-02-09T15:52:53.319Z,20.40
2023-02-09T15:55:21.865Z,23.00
2023-02-09T15:57:51.061Z,22.80
2023-02-09T16:00:21.162Z,23.60
2023-02-09T16:02:49.591Z,20.20
2023-02-09T16:05:17.805Z,21.40
2023-02-09T16:07:45.835Z,21.70
2023-02-09T16:10:19.777Z,27.20
2023-02-09T16:12:48.388Z,33.90
2023-02-09T16:15:18.322Z,33.10
2023-02-09T16:17:46.643Z,31.10
2023-02-09T16:20:16.037Z,29.90
2023-02-09T16:22:46.196Z,27.60
2023-02-09T16:25:23.192Z,24.70
2023-02-09T16:27:52.187Z,25.20
2023-02-09T16:30:28.696Z,21.40
2023-02-09T16:32:56.731Z,21.70
2023-02-09T16:35:25.662Z,23.40
2023-02-09T16:37:54.005Z,27.10
2023-02-09T16:40:32.770Z,23.80
2023-02-09T16:43:01.152Z,21.80
2023-02-09T16:45:30.701Z,27.70
2023-02-09T16:48:00.002Z,25.80
2023-02-09T16:50:33.356Z,25.60
2023-02-09T16:55:33.989Z,22.90
2023-02-09T16:58:03.803Z,23.70
2023-02-09T17:00:36.658Z,23.60
2023-02-09T17:03:07.629Z,24.80
2023-02-09T17:05:36.345Z,24.10
2023-02-09T17:08:10.699Z,28.50
2023-02-09T17:10:39.474Z,29.40
2023-02-09T17:13:07.742Z,29.00
2023-02-09T17:15:48.544Z,23.40
2023-02-09T17:18:37.803Z,29.70
2023-02-09T17:21:15.020Z,40.70
2023-02-09T17:23:43.929Z,29.30
2023-02-09T17:26:12.955Z,23.10
2023-02-09T17:28:43.034Z,21.70
2023-02-09T17:31:18.128Z,22.00
2023-02-09T17:33:48.367Z,23.00
2023-02-09T17:36:26.834Z,23.00
2023-02-09T17:38:59.458Z,23.70
2023-02-09T17:41:37.118Z,24.80
2023-02-09T17:44:24.138Z,24.30
2023-02-09T17:46:57.139Z,23.30
2023-02-09T17:49:25.317Z,23.30
2023-02-09T17:51:54.735Z,25.00
2023-02-09T17:54:22.934Z,26.50
2023-02-09T17:56:50.998Z,23.90
2023-02-09T17:59:20.405Z,28.80
2023-02-09T18:01:51.764Z,26.40
2023-02-09T18:04:26.941Z,24.30
2023-02-09T18:06:57.603Z,25.80
2023-02-09T18:09:26.692Z,26.60
2023-02-09T18:11:58.478Z,26.00
2023-02-09T18:14:28.149Z,22.50
2023-02-09T18:16:57.694Z,25.40
2023-02-09T18:19:26.529Z,25.00
2023-02-09T18:21:57.048Z,25.60
2023-02-09T18:24:30.545Z,27.90
2023-02-09T18:27:02.866Z,26.00
2023-02-09T18:29:32.545Z,25.70
2023-02-09T18:32:02.234Z,27.00
2023-02-09T18:34:31.228Z,27.80
2023-02-09T18:37:00.443Z,27.10
2023-02-09T18:39:31.352Z,29.30
2023-02-09T18:42:00.252Z,27.00
2023-02-09T18:44:29.586Z,29.00
2023-02-09T18:47:02.625Z,30.00
2023-02-09T18:49:31.250Z,31.60
2023-02-09T18:51:59.633Z,33.80
2023-02-09T18:54:29.936Z,45.70
2023-02-09T18:57:00.954Z,47.10
2023-02-09T18:59:31.006Z,41.00
2023-02-09T19:01:59.658Z,45.20
2023-02-09T19:04:28.258Z,41.00
2023-02-09T19:06:57.154Z,42.80
2023-02-09T19:09:26.056Z,39.10
2023-02-09T19:11:54.375Z,45.50
2023-02-09T19:14:38.339Z,44.40
2023-02-09T19:17:08.321Z,60.10
2023-02-09T19:19:36.578Z,51.00
2023-02-09T19:22:06.234Z,51.30
2023-02-09T19:24:36.366Z,56.60
2023-02-09T19:27:06.909Z,62.30
2023-02-09T19:29:35.878Z,63.60
2023-02-09T19:32:07.204Z,65.10
2023-02-09T19:34:39.332Z,67.40
2023-02-09T19:37:39.111Z,67.30
2023-02-09T19:40:21.318Z,77.10
2023-02-09T19:42:50.230Z,67.90
2023-02-09T19:45:18.432Z,71.20
2023-02-09T19:47:47.888Z,73.00
2023-02-09T19:50:26.860Z,79.70
2023-02-09T19:52:56.629Z,77.90
2023-02-09T19:55:26.570Z,78.20
2023-02-09T19:57:58.191Z,75.80
2023-02-09T20:00:27.028Z,89.00
2023-02-09T20:02:55.288Z,85.00
2023-02-09T20:05:23.418Z,81.40
2023-02-09T20:07:53.940Z,88.20
2023-02-09T20:10:24.188Z,85.10
2023-02-09T20:12:52.754Z,84.50
2023-02-09T20:15:24.382Z,81.00
2023-02-09T20:17:53.037Z,87.20
2023-02-09T20:20:21.987Z,85.20
2023-02-09T20:22:50.825Z,86.00
2023-02-09T20:25:19.666Z,81.50
2023-02-09T20:27:50.077Z,72.70
2023-02-09T20:30:18.815Z,77.00
2023-02-09T20:32:47.470Z,74.40
2023-02-09T20:35:15.903Z,72.70
2023-02-09T20:37:46.874Z,63.70
2023-02-09T20:40:17.019Z,64.30
2023-02-09T20:43:04.439Z,64.60
2023-02-09T20:45:52.285Z,66.30
2023-02-09T20:48:20.582Z,66.60
2023-02-09T20:50:49.857Z,69.70
2023-02-09T20:53:17.914Z,70.70
2023-02-09T20:55:46.908Z,70.90
2023-02-09T20:58:15.850Z,87.90
2023-02-09T21:00:48.840Z,81.20
2023-02-09T21:03:17.921Z,80.10
2023-02-09T21:05:45.994Z,84.50
2023-02-09T21:08:14.704Z,83.80
2023-02-09T21:10:43.468Z,113.80
2023-02-09T21:13:12.320Z,135.10
2023-02-09T21:15:41.724Z,147.70
2023-02-09T21:18:10.020Z,102.20
2023-02-09T21:20:39.575Z,80.80
2023-02-09T21:23:11.051Z,86.50
2023-02-09T21:25:39.454Z,81.50
2023-02-09T21:28:08.179Z,66.00
2023-02-09T21:30:41.734Z,72.40
2023-02-09T21:33:10.133Z,81.80
2023-02-09T21:35:41.338Z,74.50
2023-02-09T21:38:09.410Z,63.30
2023-02-09T21:40:38.742Z,69.90
2023-02-09T21:43:08.044Z,72.70
2023-02-09T21:45:39.976Z,79.00
2023-02-09T21:48:08.439Z,90.00
2023-02-09T21:50:37.503Z,94.00
2023-02-09T21:53:05.958Z,84.50
2023-02-09T21:55:36.093Z,77.90
2023-02-09T21:58:04.308Z,86.10
2023-02-09T22:00:34.303Z,109.10
2023-02-09T22:03:02.732Z,101.20
2023-02-09T22:05:31.352Z,87.90
2023-02-09T22:07:59.560Z,84.10
2023-02-09T22:10:36.529Z,114.00
2023-02-09T22:13:13.971Z,156.40
2023-02-09T22:15:44.701Z,134.70
2023-02-09T22:18:13.794Z,102.40
2023-02-09T22:20:42.880Z,93.70
2023-02-09T22:23:11.221Z,88.70
2023-02-09T22:25:39.995Z,75.60
2023-02-09T22:28:08.342Z,69.20
2023-02-09T22:30:36.388Z,67.00
2023-02-09T22:33:05.846Z,68.60
2023-02-09T22:35:34.165Z,69.10
2023-02-09T22:38:02.409Z,64.00
2023-02-09T22:40:30.388Z,79.30
2023-02-09T22:43:00.231Z,76.20
2023-02-09T22:45:29.142Z,71.90
2023-02-09T22:47:57.884Z,115.20
2023-02-09T22:50:25.928Z,173.70
2023-02-09T22:52:54.919Z,124.60
2023-02-09T22:55:23.218Z,112.00
2023-02-09T22:57:51.908Z,87.90
2023-02-09T23:00:20.060Z,75.40
2023-02-09T23:02:49.047Z,65.00
2023-02-09T23:05:17.263Z,63.80
2023-02-09T23:07:46.683Z,82.70
2023-02-09T23:10:16.847Z,83.90
2023-02-09T23:12:45.177Z,89.10
2023-02-09T23:15:13.268Z,83.80
2023-02-09T23:17:41.629Z,86.80
2023-02-09T23:20:10.527Z,78.00
2023-02-09T23:22:39.123Z,65.80
2023-02-09T23:25:07.635Z,65.50
2023-02-09T23:27:35.666Z,65.50
2023-02-09T23:30:04.138Z,60.80
2023-02-09T23:32:32.556Z,55.70
2023-02-09T23:35:01.137Z,54.90
2023-02-09T23:37:37.716Z,50.80
2023-02-09T23:40:06.824Z,53.60
2023-02-09T23:42:35.213Z,53.50
2023-02-09T23:45:03.502Z,48.20
2023-02-09T23:47:31.784Z,54.20
2023-02-09T23:50:00.129Z,51.60
2023-02-09T23:52:28.556Z,50.70
2023-02-09T23:54:56.668Z,52.50
2023-02-09T23:57:27.088Z,48.60
2023-02-09T23:59:55.219Z,51.80
